Historyczne dane pomiarowe

Dodano dane terminowe – wersja testowa.

Dane z okresu 1951-2019

Wersja bazy: 1.34 [2019-03-16, lista zmian], aktualizacja planowana na 2019-04-15

Dane meteo z obszaru Polski uzyskane na podstawie danych udostępnionych przez Instytut Meteorologii i Gospodarki Wodnej – Państwowy Instytut Badawczy.

 

Wybierz Datę:    

       

TemperaturaWilgotnośćWiatrCiśnienieOpadyŚniegCzas trwania zjawisk
 Stacja t tx tn tng RH VA  wxwx mslp ppp RRR   cm mm wxwxwxwxwxwxwx
1994-08-14 14.3 18.6 11.2 11.2 80.5- 6.7 7.0---- 0.0------------
1994-08-13 17.8 23.6 12.6 11.2 95.5- 8.0 3.7---- 8.0------------
1994-08-12 19.0 26.1 13.7 12.7 80.8- 6.7 1.0---- 0.0------------
1994-08-11 19.1 24.6 11.1 9.7 76.8- 5.3 2.0---- 0.0------------
1994-08-10 20.1 25.6 14.1 12.7 82.0- 2.7 0.7---- 0.0------------
1994-08-09 17.4 20.7 13.9 12.4 98.5- 8.0 1.7---- 12.2------------
1994-08-08 18.4 25.3 15.0 13.8 95.8- 7.0 0.0---- 0.0------------
1994-08-07 24.4 29.5 18.7 17.4 76.8- 3.7 2.0---- 0.7------------
1994-08-06 26.0 34.2 14.2 15.1 68.5- 1.0 1.3---- 0.2------------
1994-08-05 24.9 32.7 15.7 14.7 74.8- 1.7 1.3---- 0.0------------
1994-08-04 23.8 30.1 16.2 15.3 84.5- 1.7 2.7---- 0.0------------
1994-08-03 22.4 27.9 11.9 11.2 90.8- 5.3 2.0---- 4.1------------
1994-08-02 26.8 33.8 18.7 18.0 76.0- 2.3 1.0---- 0.0------------
1994-08-01 27.0 36.8 15.2 12.6 69.3- 3.0 2.0---- 11.6------------
1994-07-31 26.8 36.6 14.9 12.3 64.5- 1.0 0.7---- 0.0------------
1994-07-30 26.6 36.2 13.9 10.9 66.0- 1.0 2.0---- 0.0------------
1994-07-29 25.7 35.7 13.8 12.3 62.0- 0.0 0.3---- 0.0------------
1994-07-28 25.7 34.6 13.1 9.7 62.3- 0.0 1.0---- 0.0------------
1994-07-27 24.7 34.2 12.3 8.6 64.0- 0.3 1.3---- 0.0------------
1994-07-26 24.6 33.1 10.9 8.6 60.3- 0.0 1.0---- 0.0------------
1994-07-25 23.7 32.6 11.3 8.6 61.3- 1.3 0.3---- 0.0------------
1994-07-24 22.7 30.7 10.7 7.8 63.8- 0.7 0.0---- 0.0------------
1994-07-23 22.1 29.5 10.2 7.8 65.5- 1.7 1.3---- 0.0------------
1994-07-22 20.1 27.1 8.7 4.8 75.3- 1.3 0.3---- 0.0------------
1994-07-21 20.4 28.7 7.2 4.6 64.8- 0.3 1.3---- 0.0------------
1994-07-20 18.5 29.7 8.7 4.8 71.0- 1.0 1.7---- 0.0------------
1994-07-19 18.4 23.7 10.7 9.2 68.8- 2.7 2.3---- 0.0------------
1994-07-18 19.4 25.1 13.9 12.4 79.5- 7.0 3.3---- 0.0------------
1994-07-17 22.9 27.6 16.2 13.7 71.8- 4.7 2.3---- 2.6------------
1994-07-16 23.5 31.6 12.2 9.3 68.8- 2.0 1.7---- 0.0------------
1994-07-15 24.8 30.1 15.7 12.2 71.0- 0.7 0.3---- 0.0------------
1994-07-14 25.9 31.0 17.2 14.1 68.0- 1.3 1.7---- 0.0------------
1994-07-13 24.6 31.0 13.7 10.9 66.8- 1.3 0.7---- 0.0------------
1994-07-12 23.6 30.0 12.5 9.9 67.5- 1.7 2.3---- 0.0------------
1994-07-11 21.6 27.9 12.7 10.7 73.0- 3.7 3.7---- 0.0------------
1994-07-10 19.1 26.1 12.6 11.2 83.5- 4.3 2.3---- 0.2------------
1994-07-09 14.3 17.3 11.3 9.7 97.0- 7.7 2.0---- 14.0------------
1994-07-08 16.4 25.3 9.2 6.7 86.0- 6.3 4.0---- 10.8------------
1994-07-07 21.3 27.7 10.7 6.4 61.8- 2.0 2.0---- 0.0------------
1994-07-06 19.5 26.1 7.2 4.4 66.3- 4.0 1.0---- 0.0------------
1994-07-05 21.0 25.1 11.1 6.5 71.8- 2.0 2.7---- 0.0------------
1994-07-04 19.7 26.7 7.7 4.0 72.3- 0.0 1.0---- 0.0------------
1994-07-03 17.6 25.5 4.9 1.7 75.8- 0.7 1.0---- 0.0------------
1994-07-02 17.5 23.9 6.3 1.5 72.3- 0.7 2.0---- 0.0------------
1994-07-01 17.3 24.1 5.6 2.9 77.3- 2.0 3.7---- 0.0------------
1994-06-30 21.9 26.9 15.6 13.4 89.0- 5.7 2.3---- 0.0------------
1994-06-29 23.6 30.8 13.1 9.9 81.3- 0.0 2.3---- 0.0------------
1994-06-28 22.2 28.1 11.9 9.2 77.8- 0.3 2.0---- 0.0------------
1994-06-27 23.3 30.1 14.0 12.3 82.3- 0.0 2.3---- 0.0------------
1994-06-26 20.7 29.5 7.7 5.4 68.5- 0.0 3.3---- 0.0------------
1994-06-25 15.1 23.1 2.7 2.4 76.0- 1.0 2.0---- 0.0------------
1994-06-24 13.9 19.1 8.3 7.2 78.8- 4.0 7.0---- 0.0------------
1994-06-23 15.6 22.7 13.0 10.8 73.0- 3.7 14.3---- 0.0------------
1994-06-22 17.4 25.0 7.2 6.4 80.8- 5.7 7.3---- 0.0------------
1994-06-21 14.7 21.5 2.7 3.4 79.8- 2.0 2.0---- 0.0------------
1994-06-20 15.7 18.5 12.7 13.5 75.5- 4.7 8.7---- 0.0------------
1994-06-19 12.7 18.1 4.7 0.4 92.5- 8.0 3.3---- 4.4------------
1994-06-18 11.9 18.1 1.6 1.2 78.5- 5.3 3.3---- 0.0------------
1994-06-17 11.0 14.7 6.7 7.2 83.3- 7.0 5.3---- 1.8------------
1994-06-16 11.2 15.8 6.4 4.2 85.0- 7.7 7.0---- 2.0------------
238.9 ms

 

Źródłem pochodzenia danych jest Instytut Meteorologii i Gospodarki Wodnej – Państwowy Instytut Badawczy. Dane Instytutu Meteorologii i Gospodarki Wodnej – Państwowego Instytutu Badawczego zostały przetworzone.

Dane źródłowe można odnaleźć na stronie https://dane.imgw.pl